sensor_id;sensor_type;location;lat;lon;timestamp;pressure;altitude;pressure_sealevel;temperature;humidity
3598;BME280;1813;52.016;8.714;2023-08-01T00:02:18;-16261.94;;;-139.71;96.12
3598;BME280;1813;52.016;8.714;2023-08-01T00:04:52;-16261.94;;;-139.71;95.97
3598;BME280;1813;52.016;8.714;2023-08-01T00:07:27;-16261.94;;;-139.71;95.98
3598;BME280;1813;52.016;8.714;2023-08-01T00:10:01;-16261.94;;;-139.71;96.08
3598;BME280;1813;52.016;8.714;2023-08-01T00:12:38;-16261.94;;;-139.71;95.88
3598;BME280;1813;52.016;8.714;2023-08-01T00:15:12;-16261.94;;;-139.71;95.34
3598;BME280;1813;52.016;8.714;2023-08-01T00:17:46;-16261.94;;;-139.71;95.18
3598;BME280;1813;52.016;8.714;2023-08-01T00:20:21;-16261.94;;;-139.71;95.26
3598;BME280;1813;52.016;8.714;2023-08-01T00:22:55;-16261.94;;;-139.71;95.22
3598;BME280;1813;52.016;8.714;2023-08-01T00:25:29;-16261.94;;;-139.71;94.92
3598;BME280;1813;52.016;8.714;2023-08-01T00:28:07;-16261.94;;;-139.71;94.88
3598;BME280;1813;52.016;8.714;2023-08-01T00:30:41;-16261.94;;;-139.71;94.67
3598;BME280;1813;52.016;8.714;2023-08-01T00:33:16;-16261.94;;;-139.71;94.73
3598;BME280;1813;52.016;8.714;2023-08-01T00:35:53;-16261.94;;;-139.71;94.82
3598;BME280;1813;52.016;8.714;2023-08-01T00:38:28;-16261.94;;;-139.71;94.77
3598;BME280;1813;52.016;8.714;2023-08-01T00:41:02;-16261.94;;;-139.71;94.95
3598;BME280;1813;52.016;8.714;2023-08-01T00:43:38;-16261.94;;;-139.71;94.84
3598;BME280;1813;52.016;8.714;2023-08-01T00:46:12;-16261.94;;;-139.71;94.58
3598;BME280;1813;52.016;8.714;2023-08-01T00:48:46;-16261.94;;;-139.71;94.95
3598;BME280;1813;52.016;8.714;2023-08-01T00:51:20;-16261.94;;;-139.71;94.91
3598;BME280;1813;52.016;8.714;2023-08-01T00:53:54;-16261.94;;;-139.71;95.03
3598;BME280;1813;52.016;8.714;2023-08-01T00:56:29;-16261.94;;;-139.71;95.13
3598;BME280;1813;52.016;8.714;2023-08-01T00:59:05;-16261.94;;;-139.71;95.15
3598;BME280;1813;52.016;8.714;2023-08-01T01:01:40;-16261.94;;;-139.71;95.29
3598;BME280;1813;52.016;8.714;2023-08-01T01:04:14;-16261.94;;;-139.71;94.99
3598;BME280;1813;52.016;8.714;2023-08-01T01:06:53;-16261.94;;;-139.71;95.14
3598;BME280;1813;52.016;8.714;2023-08-01T01:09:30;-16261.94;;;-139.71;95.18
3598;BME280;1813;52.016;8.714;2023-08-01T01:12:06;-16261.94;;;-139.71;95.17
3598;BME280;1813;52.016;8.714;2023-08-01T01:14:43;-16261.94;;;-139.71;95.08
3598;BME280;1813;52.016;8.714;2023-08-01T01:17:18;-16261.94;;;-139.71;95.13
3598;BME280;1813;52.016;8.714;2023-08-01T01:19:52;-16261.94;;;-139.71;94.98
3598;BME280;1813;52.016;8.714;2023-08-01T01:22:29;-16261.94;;;-139.71;94.78
3598;BME280;1813;52.016;8.714;2023-08-01T01:25:05;-16261.94;;;-139.71;94.89
3598;BME280;1813;52.016;8.714;2023-08-01T01:27:40;-16261.94;;;-139.71;94.75
3598;BME280;1813;52.016;8.714;2023-08-01T01:30:16;-16261.94;;;-139.71;94.81
3598;BME280;1813;52.016;8.714;2023-08-01T01:32:52;-16261.94;;;-139.71;94.98
3598;BME280;1813;52.016;8.714;2023-08-01T01:35:26;-16261.94;;;-139.71;94.91
3598;BME280;1813;52.016;8.714;2023-08-01T01:38:03;-16261.94;;;-139.71;94.88
3598;BME280;1813;52.016;8.714;2023-08-01T01:40:37;-16261.94;;;-139.71;94.94
3598;BME280;1813;52.016;8.714;2023-08-01T01:43:11;-16261.94;;;-139.71;95.09
3598;BME280;1813;52.016;8.714;2023-08-01T01:45:45;-16261.94;;;-139.71;94.79
3598;BME280;1813;52.016;8.714;2023-08-01T01:48:18;-16261.94;;;-139.71;94.86
3598;BME280;1813;52.016;8.714;2023-08-01T01:50:52;-16261.94;;;-139.71;95.07
3598;BME280;1813;52.016;8.714;2023-08-01T01:53:29;-16261.94;;;-139.71;95.06
3598;BME280;1813;52.016;8.714;2023-08-01T01:56:03;-16261.94;;;-139.71;95.17
3598;BME280;1813;52.016;8.714;2023-08-01T01:58:37;-16261.94;;;-139.71;94.83
3598;BME280;1813;52.016;8.714;2023-08-01T02:01:11;-16261.94;;;-139.71;94.65
3598;BME280;1813;52.016;8.714;2023-08-01T02:03:45;-16261.94;;;-139.71;94.82
3598;BME280;1813;52.016;8.714;2023-08-01T02:06:19;-16261.94;;;-139.71;94.89
3598;BME280;1813;52.016;8.714;2023-08-01T02:08:56;-16261.94;;;-139.71;94.78
3598;BME280;1813;52.016;8.714;2023-08-01T02:11:34;-16261.94;;;-139.71;94.84
3598;BME280;1813;52.016;8.714;2023-08-01T02:14:08;-16261.94;;;-139.71;94.71
3598;BME280;1813;52.016;8.714;2023-08-01T02:16:42;-16261.94;;;-139.71;94.74
3598;BME280;1813;52.016;8.714;2023-08-01T02:19:15;-16261.94;;;-139.71;94.81
3598;BME280;1813;52.016;8.714;2023-08-01T02:21:49;-16261.94;;;-139.71;94.64
3598;BME280;1813;52.016;8.714;2023-08-01T02:24:26;-16261.94;;;-139.71;94.48
3598;BME280;1813;52.016;8.714;2023-08-01T02:27:00;-16261.94;;;-139.71;94.55
3598;BME280;1813;52.016;8.714;2023-08-01T02:29:34;-16261.94;;;-139.71;94.25
3598;BME280;1813;52.016;8.714;2023-08-01T02:32:08;-16261.94;;;-139.71;94.04
3598;BME280;1813;52.016;8.714;2023-08-01T02:34:42;-16261.94;;;-139.71;94.04
3598;BME280;1813;52.016;8.714;2023-08-01T02:37:16;-16261.94;;;-139.71;94.00
3598;BME280;1813;52.016;8.714;2023-08-01T02:39:53;-16261.94;;;-139.71;94.06
3598;BME280;1813;52.016;8.714;2023-08-01T02:42:27;-16261.94;;;-139.71;93.82
3598;BME280;1813;52.016;8.714;2023-08-01T02:45:01;-16261.94;;;-139.71;93.96
3598;BME280;1813;52.016;8.714;2023-08-01T02:47:35;-16261.94;;;-139.71;94.14
3598;BME280;1813;52.016;8.714;2023-08-01T02:50:09;-16261.94;;;-139.71;93.72
3598;BME280;1813;52.016;8.714;2023-08-01T02:52:43;-16261.94;;;-139.71;93.83
3598;BME280;1813;52.016;8.714;2023-08-01T02:55:20;-16261.94;;;-139.71;93.70
3598;BME280;1813;52.016;8.714;2023-08-01T02:57:53;-16261.94;;;-139.71;93.62
3598;BME280;1813;52.016;8.714;2023-08-01T03:00:28;-16261.94;;;-139.71;93.83
3598;BME280;1813;52.016;8.714;2023-08-01T03:03:02;-16261.94;;;-139.71;93.85
3598;BME280;1813;52.016;8.714;2023-08-01T03:05:37;-16261.94;;;-139.71;93.95
3598;BME280;1813;52.016;8.714;2023-08-01T03:08:11;-16261.94;;;-139.71;93.92
3598;BME280;1813;52.016;8.714;2023-08-01T03:10:47;-16261.94;;;-139.71;93.82
3598;BME280;1813;52.016;8.714;2023-08-01T03:13:21;-16261.94;;;-139.71;93.86
3598;BME280;1813;52.016;8.714;2023-08-01T03:15:55;-16261.94;;;-139.71;93.87
3598;BME280;1813;52.016;8.714;2023-08-01T03:18:29;-16261.94;;;-139.71;93.65
3598;BME280;1813;52.016;8.714;2023-08-01T03:21:04;-16261.94;;;-139.71;93.85
3598;BME280;1813;52.016;8.714;2023-08-01T03:23:39;-16261.94;;;-139.71;93.61
3598;BME280;1813;52.016;8.714;2023-08-01T03:26:16;-16261.94;;;-139.71;93.64
3598;BME280;1813;52.016;8.714;2023-08-01T03:28:50;-16261.94;;;-139.71;93.87
3598;BME280;1813;52.016;8.714;2023-08-01T03:31:24;-16261.94;;;-139.71;93.69
3598;BME280;1813;52.016;8.714;2023-08-01T03:33:58;-16261.94;;;-139.71;93.67
3598;BME280;1813;52.016;8.714;2023-08-01T03:36:32;-16261.94;;;-139.71;93.74
3598;BME280;1813;52.016;8.714;2023-08-01T03:39:06;-16261.94;;;-139.71;93.85
3598;BME280;1813;52.016;8.714;2023-08-01T03:41:43;-16261.94;;;-139.71;93.97
3598;BME280;1813;52.016;8.714;2023-08-01T03:44:18;-16261.94;;;-139.71;94.03
3598;BME280;1813;52.016;8.714;2023-08-01T03:46:52;-16261.94;;;-139.71;94.25
3598;BME280;1813;52.016;8.714;2023-08-01T03:49:26;-16261.94;;;-139.71;94.31
3598;BME280;1813;52.016;8.714;2023-08-01T03:52:00;-16261.94;;;-139.71;94.74
3598;BME280;1813;52.016;8.714;2023-08-01T03:54:35;-16261.94;;;-139.71;94.83
3598;BME280;1813;52.016;8.714;2023-08-01T03:57:12;-16261.94;;;-139.71;94.93
3598;BME280;1813;52.016;8.714;2023-08-01T03:59:46;-16261.94;;;-139.71;94.78
3598;BME280;1813;52.016;8.714;2023-08-01T04:02:20;-16261.94;;;-139.71;94.81
3598;BME280;1813;52.016;8.714;2023-08-01T04:04:54;-16261.94;;;-139.71;95.11
3598;BME280;1813;52.016;8.714;2023-08-01T04:07:28;-16261.94;;;-139.71;95.09
3598;BME280;1813;52.016;8.714;2023-08-01T04:10:03;-16261.94;;;-139.71;95.12
3598;BME280;1813;52.016;8.714;2023-08-01T04:12:40;-16261.94;;;-139.71;95.26
3598;BME280;1813;52.016;8.714;2023-08-01T04:15:14;-16261.94;;;-139.71;95.30
3598;BME280;1813;52.016;8.714;2023-08-01T04:17:48;-16261.94;;;-139.71;95.26
3598;BME280;1813;52.016;8.714;2023-08-01T04:20:22;-16261.94;;;-139.71;95.49
3598;BME280;1813;52.016;8.714;2023-08-01T04:22:56;-16261.94;;;-139.71;95.42
3598;BME280;1813;52.016;8.714;2023-08-01T04:25:29;-16261.94;;;-139.71;95.35
3598;BME280;1813;52.016;8.714;2023-08-01T04:28:06;-16261.94;;;-139.71;95.55
3598;BME280;1813;52.016;8.714;2023-08-01T04:30:40;-16261.94;;;-139.71;95.65
3598;BME280;1813;52.016;8.714;2023-08-01T04:33:14;-16261.94;;;-139.71;95.53
3598;BME280;1813;52.016;8.714;2023-08-01T04:35:48;-16261.94;;;-139.71;95.54
3598;BME280;1813;52.016;8.714;2023-08-01T04:38:22;-16261.94;;;-139.71;95.72
3598;BME280;1813;52.016;8.714;2023-08-01T04:40:56;-16261.94;;;-139.71;95.81
3598;BME280;1813;52.016;8.714;2023-08-01T04:43:33;-16261.94;;;-139.71;95.88
3598;BME280;1813;52.016;8.714;2023-08-01T04:46:07;-16261.94;;;-139.71;95.98
3598;BME280;1813;52.016;8.714;2023-08-01T04:48:41;-16261.94;;;-139.71;96.20
3598;BME280;1813;52.016;8.714;2023-08-01T04:51:15;-16261.94;;;-139.71;96.12
3598;BME280;1813;52.016;8.714;2023-08-01T04:53:48;-16261.94;;;-139.71;95.82
3598;BME280;1813;52.016;8.714;2023-08-01T04:56:22;-16261.94;;;-139.71;96.07
3598;BME280;1813;52.016;8.714;2023-08-01T04:58:59;-16261.94;;;-139.71;95.88
3598;BME280;1813;52.016;8.714;2023-08-01T05:01:33;-16261.94;;;-139.71;95.63
3598;BME280;1813;52.016;8.714;2023-08-01T05:04:06;-16261.94;;;-139.71;95.62
3598;BME280;1813;52.016;8.714;2023-08-01T05:06:41;-16261.94;;;-139.71;95.65
3598;BME280;1813;52.016;8.714;2023-08-01T05:09:14;-16261.94;;;-139.71;95.62
3598;BME280;1813;52.016;8.714;2023-08-01T05:11:48;-16261.94;;;-139.71;95.29
3598;BME280;1813;52.016;8.714;2023-08-01T05:14:25;-16261.94;;;-139.71;95.24
3598;BME280;1813;52.016;8.714;2023-08-01T05:16:59;-16261.94;;;-139.71;95.54
3598;BME280;1813;52.016;8.714;2023-08-01T05:19:33;-16261.94;;;-139.71;95.37
3598;BME280;1813;52.016;8.714;2023-08-01T05:22:07;-16261.94;;;-139.71;95.53
3598;BME280;1813;52.016;8.714;2023-08-01T05:24:41;-16261.94;;;-139.71;95.59
3598;BME280;1813;52.016;8.714;2023-08-01T05:27:15;-16261.94;;;-139.71;95.52
3598;BME280;1813;52.016;8.714;2023-08-01T05:29:51;-16261.94;;;-139.71;95.49
3598;BME280;1813;52.016;8.714;2023-08-01T05:32:25;-16261.94;;;-139.71;95.30
3598;BME280;1813;52.016;8.714;2023-08-01T05:34:59;-16261.94;;;-139.71;95.38
3598;BME280;1813;52.016;8.714;2023-08-01T05:37:33;-16261.94;;;-139.71;95.47
3598;BME280;1813;52.016;8.714;2023-08-01T05:40:08;-16261.94;;;-139.71;95.14
3598;BME280;1813;52.016;8.714;2023-08-01T05:42:43;-16261.94;;;-139.71;95.03
3598;BME280;1813;52.016;8.714;2023-08-01T05:45:20;-16261.94;;;-139.71;94.95
3598;BME280;1813;52.016;8.714;2023-08-01T05:47:53;-16261.94;;;-139.71;94.66
3598;BME280;1813;52.016;8.714;2023-08-01T05:50:27;-16261.94;;;-139.71;94.53
3598;BME280;1813;52.016;8.714;2023-08-01T05:53:01;-16261.94;;;-139.71;94.63
3598;BME280;1813;52.016;8.714;2023-08-01T05:55:36;-16261.94;;;-139.71;94.55
3598;BME280;1813;52.016;8.714;2023-08-01T05:58:10;-16261.94;;;-139.71;94.44
3598;BME280;1813;52.016;8.714;2023-08-01T06:00:47;-16261.94;;;-139.71;94.36
3598;BME280;1813;52.016;8.714;2023-08-01T06:03:21;-16261.94;;;-139.71;94.24
3598;BME280;1813;52.016;8.714;2023-08-01T06:05:55;-16261.94;;;-139.71;94.43
3598;BME280;1813;52.016;8.714;2023-08-01T06:08:29;-16261.94;;;-139.71;94.02
3598;BME280;1813;52.016;8.714;2023-08-01T06:11:03;-16261.94;;;-139.71;93.87
3598;BME280;1813;52.016;8.714;2023-08-01T06:13:37;-16261.94;;;-139.71;94.02
3598;BME280;1813;52.016;8.714;2023-08-01T06:16:14;-16261.94;;;-139.71;94.08
3598;BME280;1813;52.016;8.714;2023-08-01T06:18:48;-16261.94;;;-139.71;94.00
3598;BME280;1813;52.016;8.714;2023-08-01T06:21:22;-16261.94;;;-139.71;94.21
3598;BME280;1813;52.016;8.714;2023-08-01T06:23:56;-16261.94;;;-139.71;94.07
3598;BME280;1813;52.016;8.714;2023-08-01T06:26:30;-16261.94;;;-139.71;93.95
3598;BME280;1813;52.016;8.714;2023-08-01T06:29:04;-16261.94;;;-139.71;93.95
3598;BME280;1813;52.016;8.714;2023-08-01T06:31:40;-16261.94;;;-139.71;94.15
3598;BME280;1813;52.016;8.714;2023-08-01T06:34:14;-16261.94;;;-139.71;93.88
3598;BME280;1813;52.016;8.714;2023-08-01T06:36:48;-16261.94;;;-139.71;93.95
3598;BME280;1813;52.016;8.714;2023-08-01T06:39:22;-16261.94;;;-139.71;94.07
3598;BME280;1813;52.016;8.714;2023-08-01T06:41:57;-16261.94;;;-139.71;94.18
3598;BME280;1813;52.016;8.714;2023-08-01T06:44:31;-16261.94;;;-139.71;93.97
3598;BME280;1813;52.016;8.714;2023-08-01T06:47:08;-16261.94;;;-139.71;94.02
3598;BME280;1813;52.016;8.714;2023-08-01T06:49:42;-16261.94;;;-139.71;94.18
3598;BME280;1813;52.016;8.714;2023-08-01T06:52:16;-16261.94;;;-139.71;94.01
3598;BME280;1813;52.016;8.714;2023-08-01T06:54:49;-16261.94;;;-139.71;93.82
3598;BME280;1813;52.016;8.714;2023-08-01T06:57:23;-16261.94;;;-139.71;93.63
3598;BME280;1813;52.016;8.714;2023-08-01T06:59:58;-16261.94;;;-139.71;93.46
3598;BME280;1813;52.016;8.714;2023-08-01T07:02:37;-16261.94;;;-139.71;93.25
3598;BME280;1813;52.016;8.714;2023-08-01T07:05:11;-16261.94;;;-139.71;92.95
3598;BME280;1813;52.016;8.714;2023-08-01T07:07:46;-16261.94;;;-139.71;92.68
3598;BME280;1813;52.016;8.714;2023-08-01T07:10:20;-16261.94;;;-139.71;92.03
3598;BME280;1813;52.016;8.714;2023-08-01T07:12:54;-16261.94;;;-139.71;91.69
3598;BME280;1813;52.016;8.714;2023-08-01T07:15:28;-16261.94;;;-139.71;91.56
3598;BME280;1813;52.016;8.714;2023-08-01T07:18:05;-16261.94;;;-139.71;91.62
3598;BME280;1813;52.016;8.714;2023-08-01T07:20:41;-16261.94;;;-139.71;91.51
3598;BME280;1813;52.016;8.714;2023-08-01T07:23:15;-16261.94;;;-139.71;91.50
3598;BME280;1813;52.016;8.714;2023-08-01T07:25:49;-16261.94;;;-139.71;91.57
3598;BME280;1813;52.016;8.714;2023-08-01T07:28:23;-16261.94;;;-139.71;91.08
3598;BME280;1813;52.016;8.714;2023-08-01T07:30:58;-16261.94;;;-139.71;90.82
3598;BME280;1813;52.016;8.714;2023-08-01T07:33:36;-16261.94;;;-139.71;90.03
3598;BME280;1813;52.016;8.714;2023-08-01T07:36:10;-16261.94;;;-139.71;89.81
3598;BME280;1813;52.016;8.714;2023-08-01T07:38:44;-16261.94;;;-139.71;90.08
3598;BME280;1813;52.016;8.714;2023-08-01T07:41:18;-16261.94;;;-139.71;90.32
3598;BME280;1813;52.016;8.714;2023-08-01T07:43:51;-16261.94;;;-139.71;90.36
3598;BME280;1813;52.016;8.714;2023-08-01T07:46:25;-16261.94;;;-139.71;90.75
3598;BME280;1813;52.016;8.714;2023-08-01T07:49:02;-16261.94;;;-139.71;90.25
3598;BME280;1813;52.016;8.714;2023-08-01T07:51:36;-16261.94;;;-139.71;90.30
3598;BME280;1813;52.016;8.714;2023-08-01T07:54:10;-16261.94;;;-139.71;90.23
3598;BME280;1813;52.016;8.714;2023-08-01T07:56:44;-16261.94;;;-139.71;91.75
3598;BME280;1813;52.016;8.714;2023-08-01T07:59:19;-16261.94;;;-139.71;91.42
3598;BME280;1813;52.016;8.714;2023-08-01T08:01:53;-16261.94;;;-139.71;90.79
3598;BME280;1813;52.016;8.714;2023-08-01T08:04:29;-16261.94;;;-139.71;90.82
3598;BME280;1813;52.016;8.714;2023-08-01T08:07:04;-16261.94;;;-139.71;90.31
3598;BME280;1813;52.016;8.714;2023-08-01T08:09:38;-16261.94;;;-139.71;89.28
3598;BME280;1813;52.016;8.714;2023-08-01T08:12:15;-16261.94;;;-139.71;89.11
3598;BME280;1813;52.016;8.714;2023-08-01T08:14:49;-16261.94;;;-139.71;88.57
3598;BME280;1813;52.016;8.714;2023-08-01T08:17:23;-16261.94;;;-139.71;88.31
3598;BME280;1813;52.016;8.714;2023-08-01T08:20:00;-16261.94;;;-139.71;88.13
3598;BME280;1813;52.016;8.714;2023-08-01T08:22:34;-16261.94;;;-139.71;89.18
3598;BME280;1813;52.016;8.714;2023-08-01T08:25:08;-16261.94;;;-139.71;88.75
3598;BME280;1813;52.016;8.714;2023-08-01T08:27:42;-16261.94;;;-139.71;87.02
3598;BME280;1813;52.016;8.714;2023-08-01T08:30:16;-16261.94;;;-139.71;86.10
3598;BME280;1813;52.016;8.714;2023-08-01T08:32:50;-16261.94;;;-139.71;83.92
3598;BME280;1813;52.016;8.714;2023-08-01T08:35:27;-16261.94;;;-139.71;82.52
3598;BME280;1813;52.016;8.714;2023-08-01T08:38:02;-16261.94;;;-139.71;81.97
3598;BME280;1813;52.016;8.714;2023-08-01T08:40:41;-16261.94;;;-139.71;80.41
3598;BME280;1813;52.016;8.714;2023-08-01T08:43:17;-16261.94;;;-139.71;79.09
3598;BME280;1813;52.016;8.714;2023-08-01T08:45:53;-16261.94;;;-139.71;77.23
3598;BME280;1813;52.016;8.714;2023-08-01T08:48:29;-16261.94;;;-139.71;76.68
3598;BME280;1813;52.016;8.714;2023-08-01T08:51:06;-16261.94;;;-139.71;76.75
3598;BME280;1813;52.016;8.714;2023-08-01T08:53:42;-16261.94;;;-139.71;76.24
3598;BME280;1813;52.016;8.714;2023-08-01T08:56:18;-16261.94;;;-139.71;77.37
3598;BME280;1813;52.016;8.714;2023-08-01T08:58:53;-16261.94;;;-139.71;77.31
3598;BME280;1813;52.016;8.714;2023-08-01T09:01:28;-16261.94;;;-139.71;78.11
3598;BME280;1813;52.016;8.714;2023-08-01T09:04:02;-16261.94;;;-139.71;78.12
3598;BME280;1813;52.016;8.714;2023-08-01T09:06:42;-16261.94;;;-139.71;79.13
3598;BME280;1813;52.016;8.714;2023-08-01T09:09:18;-16261.94;;;-139.71;80.90
3598;BME280;1813;52.016;8.714;2023-08-01T09:11:53;-16261.94;;;-139.71;80.37
3598;BME280;1813;52.016;8.714;2023-08-01T09:14:27;-16261.94;;;-139.71;81.04
3598;BME280;1813;52.016;8.714;2023-08-01T09:17:07;-16261.94;;;-139.71;81.05
3598;BME280;1813;52.016;8.714;2023-08-01T09:19:42;-16261.94;;;-139.71;81.71
3598;BME280;1813;52.016;8.714;2023-08-01T09:22:18;-16261.94;;;-139.71;81.55
3598;BME280;1813;52.016;8.714;2023-08-01T09:24:53;-16261.94;;;-139.71;82.04
3598;BME280;1813;52.016;8.714;2023-08-01T09:27:32;-16261.94;;;-139.71;83.88
3598;BME280;1813;52.016;8.714;2023-08-01T09:30:09;-16261.94;;;-139.71;86.35
3598;BME280;1813;52.016;8.714;2023-08-01T09:32:52;-16261.94;;;-139.71;86.79
3598;BME280;1813;52.016;8.714;2023-08-01T09:35:26;-16261.94;;;-139.71;85.22
3598;BME280;1813;52.016;8.714;2023-08-01T09:38:03;-16261.94;;;-139.71;84.12
3598;BME280;1813;52.016;8.714;2023-08-01T09:40:37;-16261.94;;;-139.71;83.54
3598;BME280;1813;52.016;8.714;2023-08-01T09:43:13;-16261.94;;;-139.71;84.11
3598;BME280;1813;52.016;8.714;2023-08-01T09:45:51;-16261.94;;;-139.71;85.24
3598;BME280;1813;52.016;8.714;2023-08-01T09:48:26;-16261.94;;;-139.71;86.62
3598;BME280;1813;52.016;8.714;2023-08-01T09:51:05;-16261.94;;;-139.71;85.97
3598;BME280;1813;52.016;8.714;2023-08-01T09:53:50;-16261.94;;;-139.71;84.72
3598;BME280;1813;52.016;8.714;2023-08-01T09:56:25;-16261.94;;;-139.71;84.01
3598;BME280;1813;52.016;8.714;2023-08-01T09:58:59;-16261.94;;;-139.71;83.84
3598;BME280;1813;52.016;8.714;2023-08-01T10:01:35;-16261.94;;;-139.71;83.96
3598;BME280;1813;52.016;8.714;2023-08-01T10:04:12;-16261.94;;;-139.71;84.27
3598;BME280;1813;52.016;8.714;2023-08-01T10:06:49;-16261.94;;;-139.71;84.24
3598;BME280;1813;52.016;8.714;2023-08-01T10:09:30;-16261.94;;;-139.71;85.20
3598;BME280;1813;52.016;8.714;2023-08-01T10:12:07;-16261.94;;;-139.71;86.82
3598;BME280;1813;52.016;8.714;2023-08-01T10:14:41;-16261.94;;;-139.71;90.04
3598;BME280;1813;52.016;8.714;2023-08-01T10:17:16;-16261.94;;;-139.71;91.95
3598;BME280;1813;52.016;8.714;2023-08-01T10:19:51;-16261.94;;;-139.71;91.35
3598;BME280;1813;52.016;8.714;2023-08-01T10:22:27;-16261.94;;;-139.71;89.88
3598;BME280;1813;52.016;8.714;2023-08-01T10:25:05;-16261.94;;;-139.71;87.35
3598;BME280;1813;52.016;8.714;2023-08-01T10:27:40;-16261.94;;;-139.71;84.62
3598;BME280;1813;52.016;8.714;2023-08-01T10:30:25;-16261.94;;;-139.71;82.43
3598;BME280;1813;52.016;8.714;2023-08-01T10:33:01;-16261.94;;;-139.71;79.53
3598;BME280;1813;52.016;8.714;2023-08-01T10:35:36;-16261.94;;;-139.71;77.63
3598;BME280;1813;52.016;8.714;2023-08-01T10:38:11;-16261.94;;;-139.71;78.96
3598;BME280;1813;52.016;8.714;2023-08-01T10:40:48;-16261.94;;;-139.71;80.24
3598;BME280;1813;52.016;8.714;2023-08-01T10:43:23;-16261.94;;;-139.71;81.60
3598;BME280;1813;52.016;8.714;2023-08-01T10:46:01;-16261.94;;;-139.71;82.30
3598;BME280;1813;52.016;8.714;2023-08-01T10:48:47;-16261.94;;;-139.71;82.99
3598;BME280;1813;52.016;8.714;2023-08-01T10:51:22;-16261.94;;;-139.71;83.33
3598;BME280;1813;52.016;8.714;2023-08-01T10:53:56;-16261.94;;;-139.71;82.56
3598;BME280;1813;52.016;8.714;2023-08-01T10:56:32;-16261.94;;;-139.71;81.39
3598;BME280;1813;52.016;8.714;2023-08-01T10:59:07;-16261.94;;;-139.71;81.35
3598;BME280;1813;52.016;8.714;2023-08-01T11:01:47;-16261.94;;;-139.71;81.37
3598;BME280;1813;52.016;8.714;2023-08-01T11:04:22;-16261.94;;;-139.71;82.09
3598;BME280;1813;52.016;8.714;2023-08-01T11:06:56;-16261.94;;;-139.71;82.16
3598;BME280;1813;52.016;8.714;2023-08-01T11:09:30;-16261.94;;;-139.71;84.72
3598;BME280;1813;52.016;8.714;2023-08-01T11:12:09;-16261.94;;;-139.71;87.16
3598;BME280;1813;52.016;8.714;2023-08-01T11:14:43;-16261.94;;;-139.71;86.29
3598;BME280;1813;52.016;8.714;2023-08-01T11:17:18;-16261.94;;;-139.71;85.25
3598;BME280;1813;52.016;8.714;2023-08-01T11:20:00;-16261.94;;;-139.71;83.14
3598;BME280;1813;52.016;8.714;2023-08-01T11:22:35;-16261.94;;;-139.71;81.24
3598;BME280;1813;52.016;8.714;2023-08-01T11:25:09;-16261.94;;;-139.71;80.94
3598;BME280;1813;52.016;8.714;2023-08-01T11:27:45;-16261.94;;;-139.71;82.04
3598;BME280;1813;52.016;8.714;2023-08-01T11:30:20;-16261.94;;;-139.71;79.61
3598;BME280;1813;52.016;8.714;2023-08-01T11:32:53;-16261.94;;;-139.71;78.19
3598;BME280;1813;52.016;8.714;2023-08-01T11:35:28;-16261.94;;;-139.71;77.35
3598;BME280;1813;52.016;8.714;2023-08-01T11:38:02;-16261.94;;;-139.71;76.05
3598;BME280;1813;52.016;8.714;2023-08-01T11:40:38;-16261.94;;;-139.71;75.90
3598;BME280;1813;52.016;8.714;2023-08-01T11:43:15;-16261.94;;;-139.71;75.33
3598;BME280;1813;52.016;8.714;2023-08-01T11:45:50;-16261.94;;;-139.71;75.68
3598;BME280;1813;52.016;8.714;2023-08-01T11:48:25;-16261.94;;;-139.71;76.82
3598;BME280;1813;52.016;8.714;2023-08-01T11:50:59;-16261.94;;;-139.71;78.75
3598;BME280;1813;52.016;8.714;2023-08-01T11:53:33;-16261.94;;;-139.71;79.43
3598;BME280;1813;52.016;8.714;2023-08-01T11:56:19;-16261.94;;;-139.71;80.88
3598;BME280;1813;52.016;8.714;2023-08-01T11:58:58;-16261.94;;;-139.71;82.06
3598;BME280;1813;52.016;8.714;2023-08-01T12:01:38;-16261.94;;;-139.71;83.47
3598;BME280;1813;52.016;8.714;2023-08-01T12:04:23;-16261.94;;;-139.71;84.80
3598;BME280;1813;52.016;8.714;2023-08-01T12:06:57;-16261.94;;;-139.71;86.12
3598;BME280;1813;52.016;8.714;2023-08-01T12:09:31;-16261.94;;;-139.71;86.31
3598;BME280;1813;52.016;8.714;2023-08-01T12:12:08;-16261.94;;;-139.71;87.41
3598;BME280;1813;52.016;8.714;2023-08-01T12:14:45;-16261.94;;;-139.71;87.03
3598;BME280;1813;52.016;8.714;2023-08-01T12:17:19;-16261.94;;;-139.71;85.98
3598;BME280;1813;52.016;8.714;2023-08-01T12:19:53;-16261.94;;;-139.71;85.05
3598;BME280;1813;52.016;8.714;2023-08-01T12:22:27;-16261.94;;;-139.71;84.73
3598;BME280;1813;52.016;8.714;2023-08-01T12:25:01;-16261.94;;;-139.71;83.88
3598;BME280;1813;52.016;8.714;2023-08-01T12:27:36;-16261.94;;;-139.71;82.15
3598;BME280;1813;52.016;8.714;2023-08-01T12:30:13;-16261.94;;;-139.71;81.34
3598;BME280;1813;52.016;8.714;2023-08-01T12:32:48;-16261.94;;;-139.71;79.39
3598;BME280;1813;52.016;8.714;2023-08-01T12:35:22;-16261.94;;;-139.71;77.78
3598;BME280;1813;52.016;8.714;2023-08-01T12:37:56;-16261.94;;;-139.71;76.13
3598;BME280;1813;52.016;8.714;2023-08-01T12:40:30;-16261.94;;;-139.71;74.60
3598;BME280;1813;52.016;8.714;2023-08-01T12:43:04;-16261.94;;;-139.71;73.60
3598;BME280;1813;52.016;8.714;2023-08-01T12:45:41;-16261.94;;;-139.71;74.24
3598;BME280;1813;52.016;8.714;2023-08-01T12:48:16;-16261.94;;;-139.71;76.00
3598;BME280;1813;52.016;8.714;2023-08-01T12:50:50;-16261.94;;;-139.71;74.48
3598;BME280;1813;52.016;8.714;2023-08-01T12:53:26;-16261.94;;;-139.71;73.68
3598;BME280;1813;52.016;8.714;2023-08-01T12:56:05;-16261.94;;;-139.71;72.75
3598;BME280;1813;52.016;8.714;2023-08-01T12:58:40;-16261.94;;;-139.71;72.10
3598;BME280;1813;52.016;8.714;2023-08-01T13:01:17;-16261.94;;;-139.71;71.87
3598;BME280;1813;52.016;8.714;2023-08-01T13:03:51;-16261.94;;;-139.71;71.68
3598;BME280;1813;52.016;8.714;2023-08-01T13:06:25;-16261.94;;;-139.71;72.59
3598;BME280;1813;52.016;8.714;2023-08-01T13:09:00;-16261.94;;;-139.71;74.39
3598;BME280;1813;52.016;8.714;2023-08-01T13:11:34;-16261.94;;;-139.71;75.34
3598;BME280;1813;52.016;8.714;2023-08-01T13:14:08;-16261.94;;;-139.71;73.55
3598;BME280;1813;52.016;8.714;2023-08-01T13:16:44;-16261.94;;;-139.71;72.54
3598;BME280;1813;52.016;8.714;2023-08-01T13:19:18;-16261.94;;;-139.71;73.36
3598;BME280;1813;52.016;8.714;2023-08-01T13:21:52;-16261.94;;;-139.71;74.45
3598;BME280;1813;52.016;8.714;2023-08-01T13:24:26;-16261.94;;;-139.71;75.98
3598;BME280;1813;52.016;8.714;2023-08-01T13:27:00;-16261.94;;;-139.71;77.26
3598;BME280;1813;52.016;8.714;2023-08-01T13:29:33;-16261.94;;;-139.71;78.29
3598;BME280;1813;52.016;8.714;2023-08-01T13:32:11;-16261.94;;;-139.71;79.77